TimePDT,TemperatureF,Dew PointF,Humidity,Sea Level PressureIn,VisibilityMPH,Wind Direction,Wind SpeedMPH,Gust SpeedMPH,PrecipitationIn,Events,Conditions,WindDirDegrees,DateUTC
12:53 AM,55.0,44.1,67,29.94,10.0,South,6.9,-,N/A,,Clear,190,2011-04-01 07:53:00
1:53 AM,53.1,44.1,71,29.93,10.0,SSW,6.9,-,N/A,,Clear,200,2011-04-01 08:53:00
2:53 AM,52.0,43.0,71,29.91,10.0,SSW,5.8,-,N/A,,Clear,210,2011-04-01 09:53:00
3:53 AM,52.0,43.0,71,29.90,10.0,South,8.1,-,N/A,,Clear,190,2011-04-01 10:53:00
4:53 AM,53.1,43.0,69,29.89,10.0,South,3.5,-,N/A,,Clear,190,2011-04-01 11:53:00
5:53 AM,50.0,41.0,71,29.89,10.0,Calm,Calm,-,N/A,,Clear,0,2011-04-01 12:53:00
6:53 AM,46.9,41.0,80,29.92,10.0,Calm,Calm,-,N/A,,Clear,0,2011-04-01 13:53:00
7:53 AM,55.9,45.0,67,29.93,10.0,Calm,Calm,-,N/A,,Clear,0,2011-04-01 14:53:00
8:53 AM,63.0,42.1,46,29.94,10.0,Calm,Calm,-,N/A,,Clear,0,2011-04-01 15:53:00
9:53 AM,70.0,41.0,35,29.93,10.0,Calm,Calm,-,N/A,,Clear,0,2011-04-01 16:53:00
10:53 AM,73.9,42.1,32,29.92,10.0,North,4.6,-,N/A,,Clear,10,2011-04-01 17:53:00
11:53 AM,78.1,44.1,30,29.90,10.0,Calm,Calm,-,N/A,,Clear,0,2011-04-01 18:53:00
12:53 PM,82.0,46.0,28,29.88,10.0,NNE,3.5,-,N/A,,Clear,20,2011-04-01 19:53:00
1:53 PM,84.9,43.0,23,29.85,10.0,North,3.5,-,N/A,,Clear,350,2011-04-01 20:53:00
2:53 PM,86.0,43.0,22,29.82,10.0,WNW,9.2,-,N/A,,Clear,290,2011-04-01 21:53:00
3:53 PM,86.0,41.0,20,29.81,10.0,West,13.8,23.0,N/A,,Clear,260,2011-04-01 22:53:00
4:53 PM,84.9,39.9,20,29.78,10.0,WSW,17.3,-,N/A,,Clear,250,2011-04-01 23:53:00
5:53 PM,82.9,37.0,19,29.78,10.0,SW,19.6,-,N/A,,Clear,230,2011-04-02 00:53:00
6:53 PM,77.0,48.9,37,29.80,10.0,SW,13.8,-,N/A,,Clear,230,2011-04-02 01:53:00
7:53 PM,73.0,46.9,39,29.80,10.0,Calm,Calm,-,N/A,,Clear,0,2011-04-02 02:53:00
9:53 PM,72.0,45.0,38,29.81,10.0,SW,9.2,18.4,N/A,,Clear,220,2011-04-02 04:53:00
10:53 PM,70.0,39.0,32,29.82,10.0,WSW,9.2,-,N/A,,Clear,250,2011-04-02 05:53:00
11:53 PM,69.1,37.0,31,29.80,10.0,NW,8.1,16.1,N/A,,Clear,310,2011-04-02 06:53:00